sensor_id;sensor_type;location;lat;lon;timestamp;temperature;humidity
20246;DHT22;10281;54.406;18.556;2024-02-26T00:00:43;3.80;99.90
20246;DHT22;10281;54.406;18.556;2024-02-26T00:03:12;3.70;99.90
20246;DHT22;10281;54.406;18.556;2024-02-26T00:05:39;3.80;99.90
20246;DHT22;10281;54.406;18.556;2024-02-26T00:08:06;3.70;99.90
20246;DHT22;10281;54.406;18.556;2024-02-26T00:10:32;3.80;99.90
20246;DHT22;10281;54.406;18.556;2024-02-26T00:12:59;3.80;99.90
20246;DHT22;10281;54.406;18.556;2024-02-26T00:15:25;3.90;99.90
20246;DHT22;10281;54.406;18.556;2024-02-26T00:17:53;3.90;99.90
20246;DHT22;10281;54.406;18.556;2024-02-26T00:20:20;3.90;99.90
20246;DHT22;10281;54.406;18.556;2024-02-26T00:22:47;3.90;99.90
20246;DHT22;10281;54.406;18.556;2024-02-26T00:25:13;4.00;99.90
20246;DHT22;10281;54.406;18.556;2024-02-26T00:27:40;4.00;99.90
20246;DHT22;10281;54.406;18.556;2024-02-26T00:30:08;4.00;99.90
20246;DHT22;10281;54.406;18.556;2024-02-26T00:32:34;4.00;99.90
20246;DHT22;10281;54.406;18.556;2024-02-26T00:35:01;4.10;99.90
20246;DHT22;10281;54.406;18.556;2024-02-26T00:37:28;4.10;99.90
20246;DHT22;10281;54.406;18.556;2024-02-26T00:39:54;4.10;99.90
20246;DHT22;10281;54.406;18.556;2024-02-26T00:42:21;4.10;99.90
20246;DHT22;10281;54.406;18.556;2024-02-26T00:44:47;4.00;99.90
20246;DHT22;10281;54.406;18.556;2024-02-26T00:47:14;4.10;99.90
20246;DHT22;10281;54.406;18.556;2024-02-26T00:49:41;4.10;99.90
20246;DHT22;10281;54.406;18.556;2024-02-26T00:52:07;4.10;99.90
20246;DHT22;10281;54.406;18.556;2024-02-26T00:54:34;4.10;99.90
20246;DHT22;10281;54.406;18.556;2024-02-26T00:57:00;4.20;99.90
20246;DHT22;10281;54.406;18.556;2024-02-26T00:59:27;4.20;99.90
20246;DHT22;10281;54.406;18.556;2024-02-26T01:01:54;4.20;99.90
20246;DHT22;10281;54.406;18.556;2024-02-26T01:04:20;4.20;99.90
20246;DHT22;10281;54.406;18.556;2024-02-26T01:06:47;4.10;99.90
20246;DHT22;10281;54.406;18.556;2024-02-26T01:09:13;4.10;99.90
20246;DHT22;10281;54.406;18.556;2024-02-26T01:11:40;4.20;99.90
20246;DHT22;10281;54.406;18.556;2024-02-26T01:14:06;4.20;99.90
20246;DHT22;10281;54.406;18.556;2024-02-26T01:16:33;4.20;99.90
20246;DHT22;10281;54.406;18.556;2024-02-26T01:19:00;4.10;99.90
20246;DHT22;10281;54.406;18.556;2024-02-26T01:21:26;4.10;99.90
20246;DHT22;10281;54.406;18.556;2024-02-26T01:23:55;4.10;99.90
20246;DHT22;10281;54.406;18.556;2024-02-26T01:26:21;4.10;99.90
20246;DHT22;10281;54.406;18.556;2024-02-26T01:28:48;4.10;99.90
20246;DHT22;10281;54.406;18.556;2024-02-26T01:31:15;4.10;99.90
20246;DHT22;10281;54.406;18.556;2024-02-26T01:33:42;4.10;99.90
20246;DHT22;10281;54.406;18.556;2024-02-26T01:36:08;4.10;99.90
20246;DHT22;10281;54.406;18.556;2024-02-26T01:38:35;4.10;99.90
20246;DHT22;10281;54.406;18.556;2024-02-26T01:41:01;4.00;99.90
20246;DHT22;10281;54.406;18.556;2024-02-26T01:43:28;3.90;99.90
20246;DHT22;10281;54.406;18.556;2024-02-26T01:45:55;3.90;99.90
20246;DHT22;10281;54.406;18.556;2024-02-26T01:48:22;3.70;99.90
20246;DHT22;10281;54.406;18.556;2024-02-26T01:50:49;3.70;99.90
20246;DHT22;10281;54.406;18.556;2024-02-26T01:53:16;3.70;99.90
20246;DHT22;10281;54.406;18.556;2024-02-26T01:55:43;3.70;99.90
20246;DHT22;10281;54.406;18.556;2024-02-26T01:58:11;3.60;99.90
20246;DHT22;10281;54.406;18.556;2024-02-26T02:00:39;3.60;99.90
20246;DHT22;10281;54.406;18.556;2024-02-26T02:03:05;3.40;99.90
20246;DHT22;10281;54.406;18.556;2024-02-26T02:05:33;3.40;99.90
20246;DHT22;10281;54.406;18.556;2024-02-26T02:08:00;3.40;99.90
20246;DHT22;10281;54.406;18.556;2024-02-26T02:10:29;3.20;99.90
20246;DHT22;10281;54.406;18.556;2024-02-26T02:12:55;3.20;99.90
20246;DHT22;10281;54.406;18.556;2024-02-26T02:15:22;3.30;99.90
20246;DHT22;10281;54.406;18.556;2024-02-26T02:17:49;3.30;99.90
20246;DHT22;10281;54.406;18.556;2024-02-26T02:20:17;3.30;99.90
20246;DHT22;10281;54.406;18.556;2024-02-26T02:22:45;3.30;99.90
20246;DHT22;10281;54.406;18.556;2024-02-26T02:25:12;3.30;99.90
20246;DHT22;10281;54.406;18.556;2024-02-26T02:27:39;3.30;99.90
20246;DHT22;10281;54.406;18.556;2024-02-26T02:30:07;3.30;99.90
20246;DHT22;10281;54.406;18.556;2024-02-26T02:32:37;3.30;99.90
20246;DHT22;10281;54.406;18.556;2024-02-26T02:35:04;3.30;99.90
20246;DHT22;10281;54.406;18.556;2024-02-26T02:37:31;3.30;99.90
20246;DHT22;10281;54.406;18.556;2024-02-26T02:39:58;3.30;99.90
20246;DHT22;10281;54.406;18.556;2024-02-26T02:42:24;3.20;99.90
20246;DHT22;10281;54.406;18.556;2024-02-26T02:44:51;3.20;99.90
20246;DHT22;10281;54.406;18.556;2024-02-26T02:47:18;3.20;99.90
20246;DHT22;10281;54.406;18.556;2024-02-26T02:49:44;3.20;99.90
20246;DHT22;10281;54.406;18.556;2024-02-26T02:52:11;3.20;99.90
20246;DHT22;10281;54.406;18.556;2024-02-26T02:54:37;3.20;99.90
20246;DHT22;10281;54.406;18.556;2024-02-26T02:57:06;3.20;99.90
20246;DHT22;10281;54.406;18.556;2024-02-26T02:59:33;3.10;99.90
20246;DHT22;10281;54.406;18.556;2024-02-26T03:01:59;3.10;99.90
20246;DHT22;10281;54.406;18.556;2024-02-26T03:04:26;3.10;99.90
20246;DHT22;10281;54.406;18.556;2024-02-26T03:06:53;3.10;99.90
20246;DHT22;10281;54.406;18.556;2024-02-26T03:09:19;3.10;99.90
20246;DHT22;10281;54.406;18.556;2024-02-26T03:11:46;3.10;99.90
20246;DHT22;10281;54.406;18.556;2024-02-26T03:14:12;3.10;99.90
20246;DHT22;10281;54.406;18.556;2024-02-26T03:16:39;3.10;99.90
20246;DHT22;10281;54.406;18.556;2024-02-26T03:19:06;3.10;99.90
20246;DHT22;10281;54.406;18.556;2024-02-26T03:21:32;3.10;99.90
20246;DHT22;10281;54.406;18.556;2024-02-26T03:23:59;3.10;99.90
20246;DHT22;10281;54.406;18.556;2024-02-26T03:26:25;3.00;99.90
20246;DHT22;10281;54.406;18.556;2024-02-26T03:28:52;3.00;99.90
20246;DHT22;10281;54.406;18.556;2024-02-26T03:31:18;3.00;99.90
20246;DHT22;10281;54.406;18.556;2024-02-26T03:33:45;2.90;99.90
20246;DHT22;10281;54.406;18.556;2024-02-26T03:36:12;2.90;99.90
20246;DHT22;10281;54.406;18.556;2024-02-26T03:38:38;2.90;99.90
20246;DHT22;10281;54.406;18.556;2024-02-26T03:41:05;2.80;99.90
20246;DHT22;10281;54.406;18.556;2024-02-26T03:43:32;2.80;99.90
20246;DHT22;10281;54.406;18.556;2024-02-26T03:45:58;2.70;99.90
20246;DHT22;10281;54.406;18.556;2024-02-26T03:48:26;2.60;99.90
20246;DHT22;10281;54.406;18.556;2024-02-26T03:50:52;2.60;99.90
20246;DHT22;10281;54.406;18.556;2024-02-26T03:53:19;2.60;99.90
20246;DHT22;10281;54.406;18.556;2024-02-26T03:55:45;2.60;99.90
20246;DHT22;10281;54.406;18.556;2024-02-26T03:58:12;2.60;99.90
20246;DHT22;10281;54.406;18.556;2024-02-26T04:00:39;2.70;99.90
20246;DHT22;10281;54.406;18.556;2024-02-26T04:03:06;2.70;99.90
20246;DHT22;10281;54.406;18.556;2024-02-26T04:05:33;2.70;99.90
20246;DHT22;10281;54.406;18.556;2024-02-26T04:07:59;2.60;99.90
20246;DHT22;10281;54.406;18.556;2024-02-26T04:10:26;2.60;99.90
20246;DHT22;10281;54.406;18.556;2024-02-26T04:12:52;2.50;99.90
20246;DHT22;10281;54.406;18.556;2024-02-26T04:15:19;2.50;99.90
20246;DHT22;10281;54.406;18.556;2024-02-26T04:17:46;2.40;99.90
20246;DHT22;10281;54.406;18.556;2024-02-26T04:20:14;2.40;99.90
20246;DHT22;10281;54.406;18.556;2024-02-26T04:22:43;2.40;99.90
20246;DHT22;10281;54.406;18.556;2024-02-26T04:25:10;2.40;99.90
20246;DHT22;10281;54.406;18.556;2024-02-26T04:27:36;2.40;99.90
20246;DHT22;10281;54.406;18.556;2024-02-26T04:30:04;2.50;99.90
20246;DHT22;10281;54.406;18.556;2024-02-26T04:32:30;2.40;99.90
20246;DHT22;10281;54.406;18.556;2024-02-26T04:34:57;2.40;99.90
20246;DHT22;10281;54.406;18.556;2024-02-26T04:37:24;2.40;99.90
20246;DHT22;10281;54.406;18.556;2024-02-26T04:39:50;2.40;99.90
20246;DHT22;10281;54.406;18.556;2024-02-26T04:42:17;2.30;99.90
20246;DHT22;10281;54.406;18.556;2024-02-26T04:44:43;2.20;99.90
20246;DHT22;10281;54.406;18.556;2024-02-26T04:47:10;2.10;99.90
20246;DHT22;10281;54.406;18.556;2024-02-26T04:49:36;2.00;99.90
20246;DHT22;10281;54.406;18.556;2024-02-26T04:52:04;2.10;99.90
20246;DHT22;10281;54.406;18.556;2024-02-26T04:54:30;2.10;99.90
20246;DHT22;10281;54.406;18.556;2024-02-26T04:56:57;2.20;99.90
20246;DHT22;10281;54.406;18.556;2024-02-26T04:59:24;2.30;99.90
20246;DHT22;10281;54.406;18.556;2024-02-26T05:01:50;2.40;99.90
20246;DHT22;10281;54.406;18.556;2024-02-26T05:04:19;2.40;99.90
20246;DHT22;10281;54.406;18.556;2024-02-26T05:06:45;2.40;99.90
20246;DHT22;10281;54.406;18.556;2024-02-26T05:09:12;2.40;99.90
20246;DHT22;10281;54.406;18.556;2024-02-26T05:11:39;2.40;99.90
20246;DHT22;10281;54.406;18.556;2024-02-26T05:14:05;2.40;99.90
20246;DHT22;10281;54.406;18.556;2024-02-26T05:16:32;2.40;99.90
20246;DHT22;10281;54.406;18.556;2024-02-26T05:18:59;2.30;99.90
20246;DHT22;10281;54.406;18.556;2024-02-26T05:21:25;2.30;99.90
20246;DHT22;10281;54.406;18.556;2024-02-26T05:23:52;2.20;99.90
20246;DHT22;10281;54.406;18.556;2024-02-26T05:26:20;2.20;99.90
20246;DHT22;10281;54.406;18.556;2024-02-26T05:28:47;2.20;99.90
20246;DHT22;10281;54.406;18.556;2024-02-26T05:31:15;2.30;99.90
20246;DHT22;10281;54.406;18.556;2024-02-26T05:33:41;2.20;99.90
20246;DHT22;10281;54.406;18.556;2024-02-26T05:36:08;2.20;99.90
20246;DHT22;10281;54.406;18.556;2024-02-26T05:38:34;2.10;99.90
20246;DHT22;10281;54.406;18.556;2024-02-26T05:41:01;2.00;99.90
20246;DHT22;10281;54.406;18.556;2024-02-26T05:43:30;2.00;99.90
20246;DHT22;10281;54.406;18.556;2024-02-26T05:45:57;1.90;99.90
20246;DHT22;10281;54.406;18.556;2024-02-26T05:48:23;1.90;99.90
20246;DHT22;10281;54.406;18.556;2024-02-26T05:50:50;1.90;99.90
20246;DHT22;10281;54.406;18.556;2024-02-26T05:53:16;1.90;99.90
20246;DHT22;10281;54.406;18.556;2024-02-26T05:55:43;1.80;99.90
20246;DHT22;10281;54.406;18.556;2024-02-26T05:58:10;1.70;99.90
20246;DHT22;10281;54.406;18.556;2024-02-26T06:00:36;1.70;99.90
20246;DHT22;10281;54.406;18.556;2024-02-26T06:03:03;1.70;99.90
20246;DHT22;10281;54.406;18.556;2024-02-26T06:05:29;1.70;99.90
20246;DHT22;10281;54.406;18.556;2024-02-26T06:07:56;1.70;99.90
20246;DHT22;10281;54.406;18.556;2024-02-26T06:10:22;1.80;99.90
20246;DHT22;10281;54.406;18.556;2024-02-26T06:12:49;1.80;99.90
20246;DHT22;10281;54.406;18.556;2024-02-26T06:15:16;1.80;99.90
20246;DHT22;10281;54.406;18.556;2024-02-26T06:17:42;1.90;99.90
20246;DHT22;10281;54.406;18.556;2024-02-26T06:20:10;1.80;99.90
20246;DHT22;10281;54.406;18.556;2024-02-26T06:22:41;1.80;99.90
20246;DHT22;10281;54.406;18.556;2024-02-26T06:25:08;1.70;99.90
20246;DHT22;10281;54.406;18.556;2024-02-26T06:27:35;1.80;99.90
20246;DHT22;10281;54.406;18.556;2024-02-26T06:30:02;1.70;99.90
20246;DHT22;10281;54.406;18.556;2024-02-26T06:32:29;1.70;99.90
20246;DHT22;10281;54.406;18.556;2024-02-26T06:34:55;1.70;99.90
20246;DHT22;10281;54.406;18.556;2024-02-26T06:37:22;1.70;99.90
20246;DHT22;10281;54.406;18.556;2024-02-26T06:39:49;1.70;99.90
20246;DHT22;10281;54.406;18.556;2024-02-26T06:42:17;1.70;99.90
20246;DHT22;10281;54.406;18.556;2024-02-26T06:44:44;1.70;99.90
20246;DHT22;10281;54.406;18.556;2024-02-26T06:47:11;1.80;99.90
20246;DHT22;10281;54.406;18.556;2024-02-26T06:49:38;1.80;99.90
20246;DHT22;10281;54.406;18.556;2024-02-26T06:52:04;1.80;99.90
20246;DHT22;10281;54.406;18.556;2024-02-26T06:54:32;1.90;99.90
20246;DHT22;10281;54.406;18.556;2024-02-26T06:56:59;1.90;99.90
20246;DHT22;10281;54.406;18.556;2024-02-26T06:59:25;2.00;99.90
20246;DHT22;10281;54.406;18.556;2024-02-26T07:01:52;2.00;99.90
20246;DHT22;10281;54.406;18.556;2024-02-26T07:04:19;2.10;99.90
20246;DHT22;10281;54.406;18.556;2024-02-26T07:06:47;2.10;99.90
20246;DHT22;10281;54.406;18.556;2024-02-26T07:09:13;2.20;99.90
20246;DHT22;10281;54.406;18.556;2024-02-26T07:11:40;2.20;99.90
20246;DHT22;10281;54.406;18.556;2024-02-26T07:14:09;2.30;99.90
20246;DHT22;10281;54.406;18.556;2024-02-26T07:16:37;2.40;99.90
20246;DHT22;10281;54.406;18.556;2024-02-26T07:19:03;2.40;99.90
20246;DHT22;10281;54.406;18.556;2024-02-26T07:21:30;2.50;99.90
20246;DHT22;10281;54.406;18.556;2024-02-26T07:23:57;2.60;99.90
20246;DHT22;10281;54.406;18.556;2024-02-26T07:26:23;2.70;99.90
20246;DHT22;10281;54.406;18.556;2024-02-26T07:28:52;2.70;99.90
20246;DHT22;10281;54.406;18.556;2024-02-26T07:31:19;2.80;99.90
20246;DHT22;10281;54.406;18.556;2024-02-26T07:33:45;2.80;99.90
20246;DHT22;10281;54.406;18.556;2024-02-26T07:36:12;2.90;99.90
20246;DHT22;10281;54.406;18.556;2024-02-26T07:38:38;3.00;99.90
20246;DHT22;10281;54.406;18.556;2024-02-26T07:41:05;3.10;99.90
20246;DHT22;10281;54.406;18.556;2024-02-26T07:43:32;3.20;99.90
20246;DHT22;10281;54.406;18.556;2024-02-26T07:45:59;3.30;99.90
20246;DHT22;10281;54.406;18.556;2024-02-26T07:48:25;3.30;99.90
20246;DHT22;10281;54.406;18.556;2024-02-26T07:50:52;3.40;99.90
20246;DHT22;10281;54.406;18.556;2024-02-26T07:53:19;3.50;99.90
20246;DHT22;10281;54.406;18.556;2024-02-26T07:55:45;3.60;99.90
20246;DHT22;10281;54.406;18.556;2024-02-26T07:58:12;3.70;99.90
20246;DHT22;10281;54.406;18.556;2024-02-26T08:00:39;3.80;99.90
20246;DHT22;10281;54.406;18.556;2024-02-26T08:03:05;3.80;99.90
20246;DHT22;10281;54.406;18.556;2024-02-26T08:05:32;3.90;99.90
20246;DHT22;10281;54.406;18.556;2024-02-26T08:07:58;4.00;99.90
20246;DHT22;10281;54.406;18.556;2024-02-26T08:10:25;4.10;99.90
20246;DHT22;10281;54.406;18.556;2024-02-26T08:12:51;4.20;99.90
20246;DHT22;10281;54.406;18.556;2024-02-26T08:15:18;4.30;99.90
20246;DHT22;10281;54.406;18.556;2024-02-26T08:17:45;4.40;99.90
20246;DHT22;10281;54.406;18.556;2024-02-26T08:20:13;4.50;99.90
20246;DHT22;10281;54.406;18.556;2024-02-26T08:22:40;4.60;99.90
20246;DHT22;10281;54.406;18.556;2024-02-26T08:25:07;4.70;99.90
20246;DHT22;10281;54.406;18.556;2024-02-26T08:27:35;4.90;99.90
20246;DHT22;10281;54.406;18.556;2024-02-26T08:30:01;4.90;99.90
20246;DHT22;10281;54.406;18.556;2024-02-26T08:32:28;5.10;99.90
20246;DHT22;10281;54.406;18.556;2024-02-26T08:34:55;5.20;99.90
20246;DHT22;10281;54.406;18.556;2024-02-26T08:37:21;5.30;99.90
20246;DHT22;10281;54.406;18.556;2024-02-26T08:39:48;5.40;99.90
20246;DHT22;10281;54.406;18.556;2024-02-26T08:42:14;5.50;99.90
20246;DHT22;10281;54.406;18.556;2024-02-26T08:44:41;5.60;99.90
20246;DHT22;10281;54.406;18.556;2024-02-26T08:47:08;5.70;99.90
20246;DHT22;10281;54.406;18.556;2024-02-26T08:49:34;5.80;99.90
20246;DHT22;10281;54.406;18.556;2024-02-26T08:52:01;5.90;99.90
20246;DHT22;10281;54.406;18.556;2024-02-26T08:54:28;6.10;99.90
20246;DHT22;10281;54.406;18.556;2024-02-26T08:56:54;6.20;99.90
20246;DHT22;10281;54.406;18.556;2024-02-26T08:59:21;6.30;99.90
20246;DHT22;10281;54.406;18.556;2024-02-26T09:01:49;6.40;99.90
20246;DHT22;10281;54.406;18.556;2024-02-26T09:04:15;6.50;99.90
20246;DHT22;10281;54.406;18.556;2024-02-26T09:06:42;6.70;99.90
20246;DHT22;10281;54.406;18.556;2024-02-26T09:09:09;6.80;99.90
20246;DHT22;10281;54.406;18.556;2024-02-26T09:11:35;6.90;99.90
20246;DHT22;10281;54.406;18.556;2024-02-26T09:14:02;7.00;99.90
20246;DHT22;10281;54.406;18.556;2024-02-26T09:16:30;7.10;99.90
20246;DHT22;10281;54.406;18.556;2024-02-26T09:18:57;7.30;99.90
20246;DHT22;10281;54.406;18.556;2024-02-26T09:21:23;7.40;99.90
20246;DHT22;10281;54.406;18.556;2024-02-26T09:23:51;7.50;99.90
20246;DHT22;10281;54.406;18.556;2024-02-26T09:26:17;7.60;99.90
20246;DHT22;10281;54.406;18.556;2024-02-26T09:28:44;7.70;99.90
20246;DHT22;10281;54.406;18.556;2024-02-26T09:31:11;7.80;99.90
20246;DHT22;10281;54.406;18.556;2024-02-26T09:33:38;7.90;99.90
20246;DHT22;10281;54.406;18.556;2024-02-26T09:36:04;8.00;99.90
20246;DHT22;10281;54.406;18.556;2024-02-26T09:38:32;8.10;99.90
20246;DHT22;10281;54.406;18.556;2024-02-26T09:41:00;8.20;99.90
20246;DHT22;10281;54.406;18.556;2024-02-26T09:43:31;8.30;99.90
20246;DHT22;10281;54.406;18.556;2024-02-26T09:45:58;8.40;99.90
20246;DHT22;10281;54.406;18.556;2024-02-26T09:48:25;8.50;99.90
20246;DHT22;10281;54.406;18.556;2024-02-26T09:50:52;8.60;99.90
20246;DHT22;10281;54.406;18.556;2024-02-26T09:53:21;8.70;99.90
20246;DHT22;10281;54.406;18.556;2024-02-26T09:55:48;8.70;99.90
20246;DHT22;10281;54.406;18.556;2024-02-26T09:58:16;8.80;99.90
20246;DHT22;10281;54.406;18.556;2024-02-26T10:00:51;8.90;99.90
20246;DHT22;10281;54.406;18.556;2024-02-26T10:03:16;9.00;99.90
20246;DHT22;10281;54.406;18.556;2024-02-26T10:05:45;9.00;99.90
20246;DHT22;10281;54.406;18.556;2024-02-26T10:08:12;9.10;99.90
20246;DHT22;10281;54.406;18.556;2024-02-26T10:10:41;9.20;99.90
20246;DHT22;10281;54.406;18.556;2024-02-26T10:13:08;9.20;99.90
20246;DHT22;10281;54.406;18.556;2024-02-26T10:15:36;9.30;99.90
20246;DHT22;10281;54.406;18.556;2024-02-26T10:18:05;9.30;99.90
20246;DHT22;10281;54.406;18.556;2024-02-26T10:20:32;9.30;99.90
20246;DHT22;10281;54.406;18.556;2024-02-26T10:23:02;9.40;99.90
20246;DHT22;10281;54.406;18.556;2024-02-26T10:25:29;9.40;99.90
20246;DHT22;10281;54.406;18.556;2024-02-26T10:28:00;9.40;99.90
20246;DHT22;10281;54.406;18.556;2024-02-26T10:30:28;9.50;99.90
20246;DHT22;10281;54.406;18.556;2024-02-26T10:32:56;9.50;99.90
20246;DHT22;10281;54.406;18.556;2024-02-26T10:35:23;9.60;99.90
20246;DHT22;10281;54.406;18.556;2024-02-26T10:37:50;9.60;99.90
20246;DHT22;10281;54.406;18.556;2024-02-26T10:40:17;9.60;99.90
20246;DHT22;10281;54.406;18.556;2024-02-26T10:42:44;9.60;99.90
20246;DHT22;10281;54.406;18.556;2024-02-26T10:45:12;9.60;99.90
20246;DHT22;10281;54.406;18.556;2024-02-26T10:47:40;9.60;99.90
20246;DHT22;10281;54.406;18.556;2024-02-26T10:50:08;9.70;99.90
20246;DHT22;10281;54.406;18.556;2024-02-26T10:52:36;9.60;99.90
20246;DHT22;10281;54.406;18.556;2024-02-26T10:55:05;9.60;99.90
20246;DHT22;10281;54.406;18.556;2024-02-26T10:57:36;9.60;99.90
20246;DHT22;10281;54.406;18.556;2024-02-26T11:00:05;9.60;99.90
20246;DHT22;10281;54.406;18.556;2024-02-26T11:02:34;9.60;99.90
20246;DHT22;10281;54.406;18.556;2024-02-26T11:05:03;9.60;99.90
20246;DHT22;10281;54.406;18.556;2024-02-26T11:07:31;9.60;99.90
20246;DHT22;10281;54.406;18.556;2024-02-26T11:10:00;9.60;99.90
20246;DHT22;10281;54.406;18.556;2024-02-26T11:12:29;9.60;99.90
20246;DHT22;10281;54.406;18.556;2024-02-26T11:14:56;9.60;99.90
20246;DHT22;10281;54.406;18.556;2024-02-26T11:17:26;9.60;99.90
20246;DHT22;10281;54.406;18.556;2024-02-26T11:19:56;9.60;99.90
20246;DHT22;10281;54.406;18.556;2024-02-26T11:22:27;9.60;99.90
20246;DHT22;10281;54.406;18.556;2024-02-26T11:24:56;9.50;99.90
20246;DHT22;10281;54.406;18.556;2024-02-26T11:27:27;9.50;99.90
20246;DHT22;10281;54.406;18.556;2024-02-26T11:29:57;9.50;99.90
20246;DHT22;10281;54.406;18.556;2024-02-26T11:32:27;9.40;99.90
20246;DHT22;10281;54.406;18.556;2024-02-26T11:34:56;9.30;99.90
20246;DHT22;10281;54.406;18.556;2024-02-26T11:37:24;9.30;99.90
20246;DHT22;10281;54.406;18.556;2024-02-26T11:39:52;9.40;99.90
20246;DHT22;10281;54.406;18.556;2024-02-26T11:42:23;9.40;99.90
20246;DHT22;10281;54.406;18.556;2024-02-26T11:44:51;9.30;99.90
20246;DHT22;10281;54.406;18.556;2024-02-26T11:47:21;9.30;99.90
20246;DHT22;10281;54.406;18.556;2024-02-26T11:49:48;9.30;99.90
20246;DHT22;10281;54.406;18.556;2024-02-26T11:52:16;9.30;99.90
20246;DHT22;10281;54.406;18.556;2024-02-26T11:54:50;9.30;99.90
20246;DHT22;10281;54.406;18.556;2024-02-26T11:57:27;9.20;99.90
20246;DHT22;10281;54.406;18.556;2024-02-26T11:59:56;9.20;99.90
20246;DHT22;10281;54.406;18.556;2024-02-26T12:05:02;9.20;99.90
20246;DHT22;10281;54.406;18.556;2024-02-26T12:07:29;9.20;99.90
20246;DHT22;10281;54.406;18.556;2024-02-26T12:12:30;9.20;99.90
20246;DHT22;10281;54.406;18.556;2024-02-26T12:14:57;9.20;99.90
20246;DHT22;10281;54.406;18.556;2024-02-26T12:17:24;9.10;99.90
20246;DHT22;10281;54.406;18.556;2024-02-26T12:19:52;9.00;99.90
20246;DHT22;10281;54.406;18.556;2024-02-26T12:22:20;9.00;99.90
20246;DHT22;10281;54.406;18.556;2024-02-26T12:24:46;8.90;99.90
20246;DHT22;10281;54.406;18.556;2024-02-26T12:27:13;8.90;99.90
20246;DHT22;10281;54.406;18.556;2024-02-26T12:29:41;9.00;99.90
20246;DHT22;10281;54.406;18.556;2024-02-26T12:32:08;9.00;99.90
20246;DHT22;10281;54.406;18.556;2024-02-26T12:34:35;9.00;99.90
20246;DHT22;10281;54.406;18.556;2024-02-26T12:37:02;8.80;99.90
20246;DHT22;10281;54.406;18.556;2024-02-26T12:39:29;8.80;99.90
20246;DHT22;10281;54.406;18.556;2024-02-26T12:41:57;8.80;99.90
20246;DHT22;10281;54.406;18.556;2024-02-26T12:44:25;8.90;99.90
20246;DHT22;10281;54.406;18.556;2024-02-26T12:47:00;8.80;99.90
20246;DHT22;10281;54.406;18.556;2024-02-26T12:49:28;8.80;99.90
20246;DHT22;10281;54.406;18.556;2024-02-26T12:51:55;8.80;99.90
20246;DHT22;10281;54.406;18.556;2024-02-26T12:54:24;8.80;99.90
20246;DHT22;10281;54.406;18.556;2024-02-26T12:56:51;8.80;99.90
20246;DHT22;10281;54.406;18.556;2024-02-26T12:59:18;8.70;99.90
20246;DHT22;10281;54.406;18.556;2024-02-26T13:01:45;8.70;99.90
20246;DHT22;10281;54.406;18.556;2024-02-26T13:04:12;8.70;99.90
20246;DHT22;10281;54.406;18.556;2024-02-26T13:06:39;8.70;99.90
20246;DHT22;10281;54.406;18.556;2024-02-26T13:09:06;8.60;99.90
20246;DHT22;10281;54.406;18.556;2024-02-26T13:11:33;8.60;99.90
20246;DHT22;10281;54.406;18.556;2024-02-26T13:14:00;8.60;99.90
20246;DHT22;10281;54.406;18.556;2024-02-26T13:16:27;8.60;99.90
20246;DHT22;10281;54.406;18.556;2024-02-26T13:18:53;8.50;99.90
20246;DHT22;10281;54.406;18.556;2024-02-26T13:21:20;8.50;99.90
20246;DHT22;10281;54.406;18.556;2024-02-26T13:23:51;8.50;99.90
20246;DHT22;10281;54.406;18.556;2024-02-26T13:26:21;8.50;99.90
20246;DHT22;10281;54.406;18.556;2024-02-26T13:31:24;8.40;99.90
20246;DHT22;10281;54.406;18.556;2024-02-26T13:33:51;8.40;99.90
20246;DHT22;10281;54.406;18.556;2024-02-26T13:36:19;8.40;99.90
20246;DHT22;10281;54.406;18.556;2024-02-26T13:38:52;8.40;99.90
20246;DHT22;10281;54.406;18.556;2024-02-26T13:41:21;8.40;99.90
20246;DHT22;10281;54.406;18.556;2024-02-26T13:43:50;8.40;99.90
20246;DHT22;10281;54.406;18.556;2024-02-26T13:46:17;8.30;99.90
20246;DHT22;10281;54.406;18.556;2024-02-26T13:48:44;8.30;99.90
20246;DHT22;10281;54.406;18.556;2024-02-26T13:51:10;8.30;99.90
20246;DHT22;10281;54.406;18.556;2024-02-26T13:53:37;8.30;99.90
20246;DHT22;10281;54.406;18.556;2024-02-26T13:56:04;8.40;99.90
20246;DHT22;10281;54.406;18.556;2024-02-26T13:58:31;8.40;99.90
20246;DHT22;10281;54.406;18.556;2024-02-26T14:00:59;8.40;99.90
20246;DHT22;10281;54.406;18.556;2024-02-26T14:03:28;8.40;99.90
20246;DHT22;10281;54.406;18.556;2024-02-26T14:05:54;8.40;99.90
20246;DHT22;10281;54.406;18.556;2024-02-26T14:08:22;8.40;99.90
20246;DHT22;10281;54.406;18.556;2024-02-26T14:10:49;8.40;99.90
20246;DHT22;10281;54.406;18.556;2024-02-26T14:13:16;8.30;99.90
20246;DHT22;10281;54.406;18.556;2024-02-26T14:15:43;8.30;99.90
20246;DHT22;10281;54.406;18.556;2024-02-26T14:18:10;8.20;99.90
20246;DHT22;10281;54.406;18.556;2024-02-26T14:20:37;8.30;99.90
20246;DHT22;10281;54.406;18.556;2024-02-26T14:23:04;8.30;99.90
20246;DHT22;10281;54.406;18.556;2024-02-26T14:25:31;8.20;99.90
20246;DHT22;10281;54.406;18.556;2024-02-26T14:27:58;8.10;99.90
20246;DHT22;10281;54.406;18.556;2024-02-26T14:30:25;8.10;99.90
20246;DHT22;10281;54.406;18.556;2024-02-26T14:32:52;8.10;99.90
20246;DHT22;10281;54.406;18.556;2024-02-26T14:35:19;8.10;99.90
20246;DHT22;10281;54.406;18.556;2024-02-26T14:37:46;8.10;99.90
20246;DHT22;10281;54.406;18.556;2024-02-26T14:40:13;8.10;99.90
20246;DHT22;10281;54.406;18.556;2024-02-26T14:42:40;8.10;99.90
20246;DHT22;10281;54.406;18.556;2024-02-26T14:45:08;8.10;99.90
20246;DHT22;10281;54.406;18.556;2024-02-26T14:47:35;8.10;99.90
20246;DHT22;10281;54.406;18.556;2024-02-26T14:50:02;8.00;99.90
20246;DHT22;10281;54.406;18.556;2024-02-26T14:52:28;7.90;99.90
20246;DHT22;10281;54.406;18.556;2024-02-26T14:54:55;7.80;99.90
20246;DHT22;10281;54.406;18.556;2024-02-26T14:57:24;7.80;99.90
20246;DHT22;10281;54.406;18.556;2024-02-26T14:59:51;7.80;99.90
20246;DHT22;10281;54.406;18.556;2024-02-26T15:02:17;7.80;99.90
20246;DHT22;10281;54.406;18.556;2024-02-26T15:04:45;7.80;99.90
20246;DHT22;10281;54.406;18.556;2024-02-26T15:07:12;7.80;99.90
20246;DHT22;10281;54.406;18.556;2024-02-26T15:09:38;7.80;99.90
20246;DHT22;10281;54.406;18.556;2024-02-26T15:12:06;7.80;99.90
20246;DHT22;10281;54.406;18.556;2024-02-26T15:14:33;7.80;99.90
20246;DHT22;10281;54.406;18.556;2024-02-26T15:17:01;7.70;99.90
20246;DHT22;10281;54.406;18.556;2024-02-26T15:19:28;7.70;99.90
20246;DHT22;10281;54.406;18.556;2024-02-26T15:21:54;7.70;99.90
20246;DHT22;10281;54.406;18.556;2024-02-26T15:24:21;7.70;99.90
20246;DHT22;10281;54.406;18.556;2024-02-26T15:26:47;7.70;99.90
20246;DHT22;10281;54.406;18.556;2024-02-26T15:29:14;7.70;99.90
20246;DHT22;10281;54.406;18.556;2024-02-26T15:31:41;7.70;99.90
20246;DHT22;10281;54.406;18.556;2024-02-26T15:34:07;7.60;99.90
20246;DHT22;10281;54.406;18.556;2024-02-26T15:36:34;7.50;99.90